sensor_id;sensor_type;location;lat;lon;timestamp;pressure;altitude;pressure_sealevel;temperature;humidity
14067;BME280;7108;42.684;23.350;2024-02-04T00:01:15;95765.31;;;7.80;100.00
14067;BME280;7108;42.684;23.350;2024-02-04T00:03:40;95749.78;;;7.85;100.00
14067;BME280;7108;42.684;23.350;2024-02-04T00:06:06;95748.03;;;7.89;100.00
14067;BME280;7108;42.684;23.350;2024-02-04T00:08:32;95748.03;;;7.89;100.00
14067;BME280;7108;42.684;23.350;2024-02-04T00:10:57;95711.78;;;7.63;100.00
14067;BME280;7108;42.684;23.350;2024-02-04T00:13:23;95768.97;;;7.95;100.00
14067;BME280;7108;42.684;23.350;2024-02-04T00:15:48;95732.53;;;7.74;100.00
14067;BME280;7108;42.684;23.350;2024-02-04T00:18:14;95734.03;;;7.83;100.00
14067;BME280;7108;42.684;23.350;2024-02-04T00:20:39;95723.38;;;7.75;100.00
14067;BME280;7108;42.684;23.350;2024-02-04T00:23:05;95737.19;;;7.85;100.00
14067;BME280;7108;42.684;23.350;2024-02-04T00:25:30;95752.69;;;8.00;100.00
14067;BME280;7108;42.684;23.350;2024-02-04T00:27:56;95729.00;;;7.82;100.00
14067;BME280;7108;42.684;23.350;2024-02-04T00:30:21;95707.47;;;7.70;100.00
14067;BME280;7108;42.684;23.350;2024-02-04T00:32:47;95729.56;;;7.87;100.00
14067;BME280;7108;42.684;23.350;2024-02-04T00:35:12;95727.22;;;7.86;100.00
14067;BME280;7108;42.684;23.350;2024-02-04T00:37:38;95719.44;;;7.73;100.00
14067;BME280;7108;42.684;23.350;2024-02-04T00:40:03;95746.28;;;7.93;100.00
14067;BME280;7108;42.684;23.350;2024-02-04T00:42:29;95752.41;;;7.93;100.00
14067;BME280;7108;42.684;23.350;2024-02-04T00:44:54;95751.75;;;7.96;100.00
14067;BME280;7108;42.684;23.350;2024-02-04T00:47:20;95720.63;;;7.83;100.00
14067;BME280;7108;42.684;23.350;2024-02-04T00:49:46;95737.56;;;7.96;100.00
14067;BME280;7108;42.684;23.350;2024-02-04T00:52:11;95716.84;;;7.84;100.00
14067;BME280;7108;42.684;23.350;2024-02-04T00:54:37;95735.16;;;8.03;100.00
14067;BME280;7108;42.684;23.350;2024-02-04T00:57:02;95747.97;;;7.97;100.00
14067;BME280;7108;42.684;23.350;2024-02-04T00:59:28;95713.94;;;7.89;100.00
14067;BME280;7108;42.684;23.350;2024-02-04T01:01:53;95740.63;;;8.06;100.00
14067;BME280;7108;42.684;23.350;2024-02-04T01:04:20;95723.09;;;7.88;100.00
14067;BME280;7108;42.684;23.350;2024-02-04T01:06:48;95748.28;;;7.96;100.00
14067;BME280;7108;42.684;23.350;2024-02-04T01:09:13;95705.00;;;7.85;100.00
14067;BME280;7108;42.684;23.350;2024-02-04T01:11:39;95711.47;;;7.84;100.00
14067;BME280;7108;42.684;23.350;2024-02-04T01:14:04;95726.81;;;7.96;100.00
14067;BME280;7108;42.684;23.350;2024-02-04T01:16:30;95725.44;;;7.90;100.00
14067;BME280;7108;42.684;23.350;2024-02-04T01:18:55;95735.34;;;7.98;100.00
14067;BME280;7108;42.684;23.350;2024-02-04T01:21:21;95726.47;;;7.85;100.00
14067;BME280;7108;42.684;23.350;2024-02-04T01:23:46;95725.00;;;7.88;100.00
14067;BME280;7108;42.684;23.350;2024-02-04T01:26:12;95718.72;;;7.84;100.00
14067;BME280;7108;42.684;23.350;2024-02-04T01:28:37;95714.78;;;7.81;100.00
14067;BME280;7108;42.684;23.350;2024-02-04T01:31:02;95744.22;;;8.10;100.00
14067;BME280;7108;42.684;23.350;2024-02-04T01:33:28;95734.09;;;7.95;100.00
14067;BME280;7108;42.684;23.350;2024-02-04T01:35:54;95738.34;;;7.96;100.00
14067;BME280;7108;42.684;23.350;2024-02-04T01:38:20;95742.66;;;8.09;100.00
14067;BME280;7108;42.684;23.350;2024-02-04T01:40:45;95699.63;;;7.85;100.00
14067;BME280;7108;42.684;23.350;2024-02-04T01:43:11;95709.22;;;7.86;100.00
14067;BME280;7108;42.684;23.350;2024-02-04T01:45:37;95708.31;;;7.82;100.00
14067;BME280;7108;42.684;23.350;2024-02-04T01:48:03;95712.88;;;8.02;100.00
14067;BME280;7108;42.684;23.350;2024-02-04T01:50:29;95720.72;;;8.07;100.00
14067;BME280;7108;42.684;23.350;2024-02-04T01:52:55;95707.13;;;7.92;100.00
14067;BME280;7108;42.684;23.350;2024-02-04T01:55:20;95671.44;;;7.80;100.00
14067;BME280;7108;42.684;23.350;2024-02-04T01:57:48;95727.16;;;8.15;100.00
14067;BME280;7108;42.684;23.350;2024-02-04T02:00:15;95703.31;;;8.13;100.00
14067;BME280;7108;42.684;23.350;2024-02-04T02:02:41;95675.31;;;8.02;100.00
14067;BME280;7108;42.684;23.350;2024-02-04T02:05:07;95723.06;;;8.29;100.00
14067;BME280;7108;42.684;23.350;2024-02-04T02:07:33;95708.16;;;8.20;100.00
14067;BME280;7108;42.684;23.350;2024-02-04T02:09:59;95716.72;;;8.34;100.00
14067;BME280;7108;42.684;23.350;2024-02-04T02:12:34;95674.91;;;8.12;100.00
14067;BME280;7108;42.684;23.350;2024-02-04T02:15:11;95699.50;;;8.35;100.00
14067;BME280;7108;42.684;23.350;2024-02-04T02:17:46;95704.41;;;8.33;100.00
14067;BME280;7108;42.684;23.350;2024-02-04T02:24:00;95693.56;;;8.29;100.00
14067;BME280;7108;42.684;23.350;2024-02-04T02:26:31;95669.13;;;8.22;100.00
14067;BME280;7108;42.684;23.350;2024-02-04T02:28:56;95673.78;;;8.13;100.00
14067;BME280;7108;42.684;23.350;2024-02-04T02:31:22;95682.13;;;8.20;100.00
14067;BME280;7108;42.684;23.350;2024-02-04T02:33:48;95668.41;;;8.13;100.00
14067;BME280;7108;42.684;23.350;2024-02-04T02:36:16;95677.19;;;8.22;100.00
14067;BME280;7108;42.684;23.350;2024-02-04T02:38:53;95663.22;;;8.17;100.00
14067;BME280;7108;42.684;23.350;2024-02-04T02:41:25;95675.22;;;8.31;100.00
14067;BME280;7108;42.684;23.350;2024-02-04T02:43:54;95684.44;;;8.42;100.00
14067;BME280;7108;42.684;23.350;2024-02-04T02:46:20;95680.25;;;8.33;100.00
14067;BME280;7108;42.684;23.350;2024-02-04T02:48:46;95700.63;;;8.46;100.00
14067;BME280;7108;42.684;23.350;2024-02-04T02:51:12;95685.66;;;8.45;100.00
14067;BME280;7108;42.684;23.350;2024-02-04T02:53:37;95672.06;;;8.29;100.00
14067;BME280;7108;42.684;23.350;2024-02-04T02:56:03;95713.31;;;8.57;100.00
14067;BME280;7108;42.684;23.350;2024-02-04T02:58:28;95664.03;;;8.29;100.00
14067;BME280;7108;42.684;23.350;2024-02-04T03:00:54;95652.38;;;8.25;100.00
14067;BME280;7108;42.684;23.350;2024-02-04T03:03:19;95719.94;;;8.59;100.00
14067;BME280;7108;42.684;23.350;2024-02-04T03:05:45;95688.56;;;8.51;100.00
14067;BME280;7108;42.684;23.350;2024-02-04T03:08:10;95665.16;;;8.40;100.00
14067;BME280;7108;42.684;23.350;2024-02-04T03:10:36;95691.94;;;8.48;100.00
14067;BME280;7108;42.684;23.350;2024-02-04T03:13:01;95668.06;;;8.35;100.00
14067;BME280;7108;42.684;23.350;2024-02-04T03:15:27;95654.38;;;8.28;100.00
14067;BME280;7108;42.684;23.350;2024-02-04T03:17:52;95662.16;;;8.42;100.00
14067;BME280;7108;42.684;23.350;2024-02-04T03:20:18;95698.66;;;8.66;100.00
14067;BME280;7108;42.684;23.350;2024-02-04T03:22:43;95649.41;;;8.39;100.00
14067;BME280;7108;42.684;23.350;2024-02-04T03:25:11;95702.91;;;8.67;100.00
14067;BME280;7108;42.684;23.350;2024-02-04T03:27:36;95645.38;;;8.45;100.00
14067;BME280;7108;42.684;23.350;2024-02-04T03:30:02;95674.78;;;8.53;100.00
14067;BME280;7108;42.684;23.350;2024-02-04T03:32:28;95691.16;;;8.60;100.00
14067;BME280;7108;42.684;23.350;2024-02-04T03:34:59;95640.31;;;8.43;100.00
14067;BME280;7108;42.684;23.350;2024-02-04T03:37:25;95660.03;;;8.59;100.00
14067;BME280;7108;42.684;23.350;2024-02-04T03:39:50;95599.94;;;8.28;100.00
14067;BME280;7108;42.684;23.350;2024-02-04T03:42:16;95632.50;;;8.50;100.00
14067;BME280;7108;42.684;23.350;2024-02-04T03:44:43;95648.44;;;8.67;100.00
14067;BME280;7108;42.684;23.350;2024-02-04T03:47:09;95667.03;;;8.84;100.00
14067;BME280;7108;42.684;23.350;2024-02-04T03:49:34;95639.56;;;8.78;100.00
14067;BME280;7108;42.684;23.350;2024-02-04T03:52:00;95633.88;;;8.68;100.00
14067;BME280;7108;42.684;23.350;2024-02-04T03:54:25;95611.69;;;8.59;100.00
14067;BME280;7108;42.684;23.350;2024-02-04T03:56:51;95654.13;;;8.77;100.00
14067;BME280;7108;42.684;23.350;2024-02-04T03:59:16;95615.19;;;8.59;100.00
14067;BME280;7108;42.684;23.350;2024-02-04T04:01:47;95618.66;;;8.60;100.00
14067;BME280;7108;42.684;23.350;2024-02-04T04:04:13;95652.56;;;8.76;100.00
14067;BME280;7108;42.684;23.350;2024-02-04T04:06:39;95677.53;;;8.77;100.00
14067;BME280;7108;42.684;23.350;2024-02-04T04:09:04;95653.78;;;8.55;100.00
14067;BME280;7108;42.684;23.350;2024-02-04T04:11:31;95622.66;;;8.42;100.00
14067;BME280;7108;42.684;23.350;2024-02-04T04:13:56;95618.16;;;8.34;100.00
14067;BME280;7108;42.684;23.350;2024-02-04T04:16:22;95630.81;;;8.46;100.00
14067;BME280;7108;42.684;23.350;2024-02-04T04:18:48;95638.31;;;8.40;100.00
14067;BME280;7108;42.684;23.350;2024-02-04T04:21:13;95656.81;;;8.65;100.00
14067;BME280;7108;42.684;23.350;2024-02-04T04:23:39;95635.09;;;8.58;100.00
14067;BME280;7108;42.684;23.350;2024-02-04T04:26:04;95647.84;;;8.61;100.00
14067;BME280;7108;42.684;23.350;2024-02-04T04:28:30;95624.69;;;8.57;100.00
14067;BME280;7108;42.684;23.350;2024-02-04T04:30:56;95624.78;;;8.48;100.00
14067;BME280;7108;42.684;23.350;2024-02-04T04:33:22;95646.94;;;8.57;100.00
14067;BME280;7108;42.684;23.350;2024-02-04T04:35:47;95662.84;;;8.62;100.00
14067;BME280;7108;42.684;23.350;2024-02-04T04:38:13;95650.00;;;8.68;100.00
14067;BME280;7108;42.684;23.350;2024-02-04T04:40:38;95628.72;;;8.51;100.00
14067;BME280;7108;42.684;23.350;2024-02-04T04:43:06;95666.09;;;8.80;100.00
14067;BME280;7108;42.684;23.350;2024-02-04T04:45:31;95653.47;;;8.80;100.00
14067;BME280;7108;42.684;23.350;2024-02-04T04:47:57;95644.03;;;8.62;100.00
14067;BME280;7108;42.684;23.350;2024-02-04T04:50:22;95632.88;;;8.60;100.00
14067;BME280;7108;42.684;23.350;2024-02-04T04:52:48;95653.81;;;8.67;100.00
14067;BME280;7108;42.684;23.350;2024-02-04T04:55:14;95669.25;;;8.94;100.00
14067;BME280;7108;42.684;23.350;2024-02-04T04:57:39;95641.94;;;8.80;100.00
14067;BME280;7108;42.684;23.350;2024-02-04T05:00:05;95624.25;;;8.67;100.00
14067;BME280;7108;42.684;23.350;2024-02-04T05:02:32;95638.94;;;8.81;100.00
14067;BME280;7108;42.684;23.350;2024-02-04T05:04:59;95663.66;;;8.99;100.00
14067;BME280;7108;42.684;23.350;2024-02-04T05:07:24;95661.19;;;8.94;100.00
14067;BME280;7108;42.684;23.350;2024-02-04T05:09:50;95627.50;;;8.84;100.00
14067;BME280;7108;42.684;23.350;2024-02-04T05:12:15;95665.66;;;9.02;100.00
14067;BME280;7108;42.684;23.350;2024-02-04T05:14:41;95657.84;;;8.97;100.00
14067;BME280;7108;42.684;23.350;2024-02-04T05:17:06;95666.13;;;9.04;100.00
14067;BME280;7108;42.684;23.350;2024-02-04T05:19:31;95608.13;;;8.67;100.00
14067;BME280;7108;42.684;23.350;2024-02-04T05:21:57;95639.81;;;8.73;100.00
14067;BME280;7108;42.684;23.350;2024-02-04T05:24:22;95639.81;;;8.73;100.00
14067;BME280;7108;42.684;23.350;2024-02-04T05:26:48;95627.81;;;8.71;100.00
14067;BME280;7108;42.684;23.350;2024-02-04T05:29:13;95641.81;;;8.76;100.00
14067;BME280;7108;42.684;23.350;2024-02-04T05:31:42;95650.22;;;8.75;100.00
14067;BME280;7108;42.684;23.350;2024-02-04T05:34:09;95654.94;;;8.78;100.00
14067;BME280;7108;42.684;23.350;2024-02-04T05:36:34;95678.56;;;8.96;100.00
14067;BME280;7108;42.684;23.350;2024-02-04T05:39:13;95638.25;;;8.84;100.00
14067;BME280;7108;42.684;23.350;2024-02-04T05:41:40;95687.06;;;9.10;100.00
14067;BME280;7108;42.684;23.350;2024-02-04T05:44:06;95690.63;;;9.14;100.00
14067;BME280;7108;42.684;23.350;2024-02-04T05:46:37;95672.72;;;9.06;100.00
14067;BME280;7108;42.684;23.350;2024-02-04T05:49:03;95629.06;;;8.85;100.00
14067;BME280;7108;42.684;23.350;2024-02-04T05:51:28;95686.38;;;9.13;100.00
14067;BME280;7108;42.684;23.350;2024-02-04T05:53:54;95689.53;;;9.15;100.00
14067;BME280;7108;42.684;23.350;2024-02-04T05:56:20;95687.50;;;9.12;100.00
14067;BME280;7108;42.684;23.350;2024-02-04T05:58:46;95654.47;;;8.88;100.00
14067;BME280;7108;42.684;23.350;2024-02-04T06:01:12;95678.75;;;9.03;100.00
14067;BME280;7108;42.684;23.350;2024-02-04T06:03:38;95683.72;;;9.01;100.00
14067;BME280;7108;42.684;23.350;2024-02-04T06:06:03;95691.31;;;8.99;100.00
14067;BME280;7108;42.684;23.350;2024-02-04T06:08:29;95680.53;;;8.87;100.00
14067;BME280;7108;42.684;23.350;2024-02-04T06:10:55;95709.00;;;9.00;100.00
14067;BME280;7108;42.684;23.350;2024-02-04T06:13:20;95708.88;;;8.97;100.00
14067;BME280;7108;42.684;23.350;2024-02-04T06:15:46;95700.81;;;8.97;100.00
14067;BME280;7108;42.684;23.350;2024-02-04T06:18:11;95657.16;;;8.76;100.00
14067;BME280;7108;42.684;23.350;2024-02-04T06:20:37;95702.28;;;8.94;100.00
14067;BME280;7108;42.684;23.350;2024-02-04T06:23:03;95714.50;;;8.92;100.00
14067;BME280;7108;42.684;23.350;2024-02-04T06:25:28;95680.88;;;8.74;100.00
14067;BME280;7108;42.684;23.350;2024-02-04T06:27:54;95704.28;;;8.73;100.00
14067;BME280;7108;42.684;23.350;2024-02-04T06:30:19;95695.19;;;8.66;100.00
14067;BME280;7108;42.684;23.350;2024-02-04T06:32:44;95688.59;;;8.63;100.00
14067;BME280;7108;42.684;23.350;2024-02-04T06:35:10;95748.53;;;9.00;100.00
14067;BME280;7108;42.684;23.350;2024-02-04T06:37:35;95731.06;;;8.94;100.00
14067;BME280;7108;42.684;23.350;2024-02-04T06:40:01;95744.97;;;9.08;100.00
14067;BME280;7108;42.684;23.350;2024-02-04T06:42:27;95677.06;;;8.75;100.00
14067;BME280;7108;42.684;23.350;2024-02-04T06:44:52;95690.88;;;8.85;100.00
14067;BME280;7108;42.684;23.350;2024-02-04T06:47:18;95722.00;;;9.10;100.00
14067;BME280;7108;42.684;23.350;2024-02-04T06:49:43;95730.19;;;9.13;100.00
14067;BME280;7108;42.684;23.350;2024-02-04T06:52:09;95678.88;;;8.95;100.00
14067;BME280;7108;42.684;23.350;2024-02-04T06:54:35;95708.34;;;9.15;100.00
14067;BME280;7108;42.684;23.350;2024-02-04T06:57:00;95712.03;;;9.22;100.00
14067;BME280;7108;42.684;23.350;2024-02-04T06:59:25;95734.75;;;9.25;100.00
14067;BME280;7108;42.684;23.350;2024-02-04T07:01:51;95746.66;;;9.36;100.00
14067;BME280;7108;42.684;23.350;2024-02-04T07:04:18;95726.72;;;9.37;100.00
14067;BME280;7108;42.684;23.350;2024-02-04T07:06:44;95698.56;;;9.11;100.00
14067;BME280;7108;42.684;23.350;2024-02-04T07:09:09;95699.69;;;9.21;100.00
14067;BME280;7108;42.684;23.350;2024-02-04T07:11:35;95700.72;;;9.17;100.00
14067;BME280;7108;42.684;23.350;2024-02-04T07:14:00;95706.75;;;9.14;100.00
14067;BME280;7108;42.684;23.350;2024-02-04T07:16:26;95726.94;;;9.32;100.00
14067;BME280;7108;42.684;23.350;2024-02-04T07:18:51;95738.69;;;9.39;100.00
14067;BME280;7108;42.684;23.350;2024-02-04T07:21:17;95712.72;;;9.19;100.00
14067;BME280;7108;42.684;23.350;2024-02-04T07:23:43;95710.03;;;9.19;100.00
14067;BME280;7108;42.684;23.350;2024-02-04T07:26:08;95689.53;;;9.15;100.00
14067;BME280;7108;42.684;23.350;2024-02-04T07:28:34;95701.19;;;9.07;100.00
14067;BME280;7108;42.684;23.350;2024-02-04T07:31:00;95702.84;;;9.23;100.00
14067;BME280;7108;42.684;23.350;2024-02-04T07:33:25;95728.72;;;9.40;100.00
14067;BME280;7108;42.684;23.350;2024-02-04T07:35:51;95727.13;;;9.51;100.00
14067;BME280;7108;42.684;23.350;2024-02-04T07:38:16;95684.13;;;9.27;100.00
14067;BME280;7108;42.684;23.350;2024-02-04T07:40:42;95714.25;;;9.44;100.00
14067;BME280;7108;42.684;23.350;2024-02-04T07:43:08;95733.09;;;9.56;100.00
14067;BME280;7108;42.684;23.350;2024-02-04T07:45:34;95734.09;;;9.52;100.00
14067;BME280;7108;42.684;23.350;2024-02-04T07:48:00;95725.03;;;9.32;100.00
14067;BME280;7108;42.684;23.350;2024-02-04T07:50:27;95724.03;;;9.37;100.00
14067;BME280;7108;42.684;23.350;2024-02-04T07:52:53;95713.16;;;9.33;100.00
14067;BME280;7108;42.684;23.350;2024-02-04T07:55:18;95739.22;;;9.57;100.00
14067;BME280;7108;42.684;23.350;2024-02-04T07:57:44;95712.47;;;9.36;100.00
14067;BME280;7108;42.684;23.350;2024-02-04T08:00:09;95703.50;;;9.44;100.00
14067;BME280;7108;42.684;23.350;2024-02-04T08:02:38;95758.72;;;9.77;100.00
14067;BME280;7108;42.684;23.350;2024-02-04T08:05:04;95703.56;;;9.60;100.00
14067;BME280;7108;42.684;23.350;2024-02-04T08:07:30;95724.19;;;9.68;100.00
14067;BME280;7108;42.684;23.350;2024-02-04T08:09:55;95705.72;;;9.66;100.00
14067;BME280;7108;42.684;23.350;2024-02-04T08:12:21;95726.06;;;9.79;100.00
14067;BME280;7108;42.684;23.350;2024-02-04T08:14:46;95740.63;;;10.02;100.00
14067;BME280;7108;42.684;23.350;2024-02-04T08:17:12;95753.84;;;9.95;100.00
14067;BME280;7108;42.684;23.350;2024-02-04T08:19:37;95702.91;;;9.63;100.00
14067;BME280;7108;42.684;23.350;2024-02-04T08:22:03;95702.22;;;9.66;100.00
14067;BME280;7108;42.684;23.350;2024-02-04T08:24:29;95754.84;;;9.90;100.00
14067;BME280;7108;42.684;23.350;2024-02-04T08:26:57;95757.34;;;9.95;100.00
14067;BME280;7108;42.684;23.350;2024-02-04T08:29:23;95698.53;;;9.70;100.00
14067;BME280;7108;42.684;23.350;2024-02-04T08:31:49;95716.00;;;9.76;100.00
14067;BME280;7108;42.684;23.350;2024-02-04T08:34:14;95703.56;;;9.72;100.00
14067;BME280;7108;42.684;23.350;2024-02-04T08:36:40;95732.22;;;9.91;100.00
14067;BME280;7108;42.684;23.350;2024-02-04T08:39:05;95717.34;;;9.82;100.00
14067;BME280;7108;42.684;23.350;2024-02-04T08:41:30;95717.41;;;9.85;100.00
14067;BME280;7108;42.684;23.350;2024-02-04T08:43:56;95735.13;;;10.10;100.00
14067;BME280;7108;42.684;23.350;2024-02-04T08:46:21;95705.41;;;10.07;100.00
14067;BME280;7108;42.684;23.350;2024-02-04T08:48:47;95741.16;;;10.35;100.00
14067;BME280;7108;42.684;23.350;2024-02-04T08:51:12;95744.63;;;10.47;100.00
14067;BME280;7108;42.684;23.350;2024-02-04T08:53:38;95739.22;;;10.47;100.00
14067;BME280;7108;42.684;23.350;2024-02-04T08:56:07;95732.28;;;10.46;100.00
14067;BME280;7108;42.684;23.350;2024-02-04T08:58:34;95708.81;;;10.19;100.00
14067;BME280;7108;42.684;23.350;2024-02-04T09:00:59;95714.09;;;10.16;100.00
14067;BME280;7108;42.684;23.350;2024-02-04T09:03:25;95718.22;;;10.25;100.00
14067;BME280;7108;42.684;23.350;2024-02-04T09:05:50;95709.94;;;10.18;100.00
14067;BME280;7108;42.684;23.350;2024-02-04T09:08:16;95738.66;;;10.26;100.00
14067;BME280;7108;42.684;23.350;2024-02-04T09:10:41;95703.78;;;10.18;100.00
14067;BME280;7108;42.684;23.350;2024-02-04T09:13:07;95678.03;;;10.05;100.00
14067;BME280;7108;42.684;23.350;2024-02-04T09:15:32;95726.56;;;10.20;100.00
14067;BME280;7108;42.684;23.350;2024-02-04T09:17:58;95722.28;;;10.19;100.00
14067;BME280;7108;42.684;23.350;2024-02-04T09:20:23;95730.59;;;10.14;100.00
14067;BME280;7108;42.684;23.350;2024-02-04T09:22:49;95726.19;;;10.22;100.00
14067;BME280;7108;42.684;23.350;2024-02-04T09:25:14;95736.28;;;10.25;100.00
14067;BME280;7108;42.684;23.350;2024-02-04T09:27:40;95712.91;;;10.01;100.00
14067;BME280;7108;42.684;23.350;2024-02-04T09:30:05;95739.81;;;10.13;100.00
14067;BME280;7108;42.684;23.350;2024-02-04T09:32:31;95748.88;;;10.21;100.00
14067;BME280;7108;42.684;23.350;2024-02-04T09:34:57;95709.44;;;10.01;100.00
14067;BME280;7108;42.684;23.350;2024-02-04T09:37:24;95718.03;;;10.18;100.00
14067;BME280;7108;42.684;23.350;2024-02-04T09:39:49;95735.13;;;10.38;100.00
14067;BME280;7108;42.684;23.350;2024-02-04T09:42:19;95718.13;;;10.22;100.00
14067;BME280;7108;42.684;23.350;2024-02-04T09:44:49;95727.22;;;10.45;100.00
14067;BME280;7108;42.684;23.350;2024-02-04T09:47:15;95714.88;;;10.44;100.00
14067;BME280;7108;42.684;23.350;2024-02-04T09:49:41;95740.88;;;10.51;100.00
14067;BME280;7108;42.684;23.350;2024-02-04T09:52:08;95759.25;;;10.61;100.00
14067;BME280;7108;42.684;23.350;2024-02-04T09:54:45;95734.84;;;10.70;100.00
14067;BME280;7108;42.684;23.350;2024-02-04T09:57:12;95741.91;;;10.74;100.00
14067;BME280;7108;42.684;23.350;2024-02-04T09:59:38;95720.31;;;10.74;100.00
14067;BME280;7108;42.684;23.350;2024-02-04T10:02:04;95724.25;;;10.92;100.00
14067;BME280;7108;42.684;23.350;2024-02-04T10:04:30;95700.59;;;11.01;100.00
14067;BME280;7108;42.684;23.350;2024-02-04T10:06:55;95727.41;;;11.10;100.00
14067;BME280;7108;42.684;23.350;2024-02-04T10:09:21;95745.84;;;11.08;100.00
14067;BME280;7108;42.684;23.350;2024-02-04T10:11:46;95720.16;;;10.98;100.00
14067;BME280;7108;42.684;23.350;2024-02-04T10:14:12;95728.69;;;11.15;100.00
14067;BME280;7108;42.684;23.350;2024-02-04T10:16:37;95728.88;;;11.22;100.00
14067;BME280;7108;42.684;23.350;2024-02-04T10:19:03;95736.78;;;11.31;100.00
14067;BME280;7108;42.684;23.350;2024-02-04T10:21:28;95740.50;;;11.26;100.00
14067;BME280;7108;42.684;23.350;2024-02-04T10:23:54;95719.41;;;10.98;100.00
14067;BME280;7108;42.684;23.350;2024-02-04T10:26:22;95733.66;;;11.13;100.00
14067;BME280;7108;42.684;23.350;2024-02-04T10:28:48;95733.91;;;11.24;100.00
14067;BME280;7108;42.684;23.350;2024-02-04T10:31:14;95741.75;;;11.44;100.00
14067;BME280;7108;42.684;23.350;2024-02-04T10:33:40;95730.00;;;11.37;100.00
14067;BME280;7108;42.684;23.350;2024-02-04T10:36:06;95718.16;;;11.26;100.00
14067;BME280;7108;42.684;23.350;2024-02-04T10:38:34;95716.09;;;11.19;100.00
14067;BME280;7108;42.684;23.350;2024-02-04T10:41:01;95713.38;;;11.04;100.00
14067;BME280;7108;42.684;23.350;2024-02-04T10:43:33;95736.88;;;11.04;100.00
14067;BME280;7108;42.684;23.350;2024-02-04T10:46:09;95738.97;;;11.10;100.00
14067;BME280;7108;42.684;23.350;2024-02-04T10:48:37;95739.06;;;11.13;100.00
14067;BME280;7108;42.684;23.350;2024-02-04T10:51:12;95750.53;;;11.10;100.00
14067;BME280;7108;42.684;23.350;2024-02-04T10:53:41;95725.66;;;11.02;100.00
14067;BME280;7108;42.684;23.350;2024-02-04T10:56:13;95731.56;;;11.07;100.00
14067;BME280;7108;42.684;23.350;2024-02-04T10:58:40;95730.78;;;11.07;100.00
14067;BME280;7108;42.684;23.350;2024-02-04T11:01:06;95721.22;;;11.09;100.00
14067;BME280;7108;42.684;23.350;2024-02-04T11:03:32;95734.97;;;11.19;100.00
14067;BME280;7108;42.684;23.350;2024-02-04T11:05:58;95695.13;;;10.98;100.00
14067;BME280;7108;42.684;23.350;2024-02-04T11:08:24;95709.28;;;11.10;100.00
14067;BME280;7108;42.684;23.350;2024-02-04T11:10:50;95724.41;;;11.30;100.00
14067;BME280;7108;42.684;23.350;2024-02-04T11:13:20;95735.53;;;11.44;100.00
14067;BME280;7108;42.684;23.350;2024-02-04T11:15:47;95739.66;;;11.38;100.00
14067;BME280;7108;42.684;23.350;2024-02-04T11:24:19;95691.16;;;11.57;100.00
14067;BME280;7108;42.684;23.350;2024-02-04T11:26:48;95697.69;;;11.56;100.00
14067;BME280;7108;42.684;23.350;2024-02-04T11:29:14;95694.38;;;11.47;100.00
14067;BME280;7108;42.684;23.350;2024-02-04T11:31:39;95707.16;;;11.50;100.00
14067;BME280;7108;42.684;23.350;2024-02-04T11:34:06;95648.97;;;11.33;100.00
14067;BME280;7108;42.684;23.350;2024-02-04T11:36:38;95704.66;;;11.57;100.00
14067;BME280;7108;42.684;23.350;2024-02-04T11:39:19;95659.94;;;11.40;100.00
14067;BME280;7108;42.684;23.350;2024-02-04T11:41:48;95670.78;;;11.59;100.00
14067;BME280;7108;42.684;23.350;2024-02-04T11:44:26;95685.78;;;11.57;100.00
14067;BME280;7108;42.684;23.350;2024-02-04T11:46:52;95682.47;;;11.48;100.00
14067;BME280;7108;42.684;23.350;2024-02-04T11:49:24;95660.25;;;11.39;100.00
14067;BME280;7108;42.684;23.350;2024-02-04T11:51:51;95653.09;;;11.46;100.00
14067;BME280;7108;42.684;23.350;2024-02-04T11:54:17;95650.97;;;11.52;100.00
14067;BME280;7108;42.684;23.350;2024-02-04T11:56:49;95652.75;;;11.63;100.00
14067;BME280;7108;42.684;23.350;2024-02-04T11:59:19;95626.84;;;11.59;100.00
14067;BME280;7108;42.684;23.350;2024-02-04T12:01:46;95631.19;;;11.82;100.00
14067;BME280;7108;42.684;23.350;2024-02-04T12:04:13;95612.50;;;11.74;100.00
14067;BME280;7108;42.684;23.350;2024-02-04T12:06:42;95637.22;;;11.94;100.00
14067;BME280;7108;42.684;23.350;2024-02-04T12:09:08;95643.03;;;11.96;100.00
14067;BME280;7108;42.684;23.350;2024-02-04T12:11:37;95624.50;;;11.95;100.00
14067;BME280;7108;42.684;23.350;2024-02-04T12:14:04;95642.13;;;12.08;100.00
14067;BME280;7108;42.684;23.350;2024-02-04T12:16:33;95648.88;;;11.98;100.00
14067;BME280;7108;42.684;23.350;2024-02-04T12:19:01;95629.44;;;11.93;100.00
14067;BME280;7108;42.684;23.350;2024-02-04T12:21:28;95634.22;;;11.99;100.00
14067;BME280;7108;42.684;23.350;2024-02-04T12:23:54;95624.94;;;11.97;100.00
14067;BME280;7108;42.684;23.350;2024-02-04T12:26:20;95642.91;;;12.08;100.00
14067;BME280;7108;42.684;23.350;2024-02-04T12:28:46;95623.84;;;12.20;100.00
14067;BME280;7108;42.684;23.350;2024-02-04T12:31:25;95619.34;;;12.28;100.00
14067;BME280;7108;42.684;23.350;2024-02-04T12:33:55;95631.13;;;12.39;100.00
14067;BME280;7108;42.684;23.350;2024-02-04T12:36:26;95619.41;;;12.31;100.00
14067;BME280;7108;42.684;23.350;2024-02-04T12:38:53;95625.25;;;12.55;100.00
14067;BME280;7108;42.684;23.350;2024-02-04T12:41:20;95611.63;;;12.48;100.00
14067;BME280;7108;42.684;23.350;2024-02-04T12:43:52;95590.53;;;12.35;100.00
14067;BME280;7108;42.684;23.350;2024-02-04T12:46:18;95611.31;;;12.53;100.00
14067;BME280;7108;42.684;23.350;2024-02-04T12:48:44;95606.50;;;12.43;100.00
14067;BME280;7108;42.684;23.350;2024-02-04T12:51:10;95615.69;;;12.39;100.00
14067;BME280;7108;42.684;23.350;2024-02-04T12:53:37;95620.19;;;12.32;100.00
14067;BME280;7108;42.684;23.350;2024-02-04T12:56:02;95612.13;;;12.13;100.00
14067;BME280;7108;42.684;23.350;2024-02-04T12:58:28;95597.81;;;12.12;100.00
14067;BME280;7108;42.684;23.350;2024-02-04T13:01:00;95603.22;;;12.31;100.00
14067;BME280;7108;42.684;23.350;2024-02-04T13:03:30;95617.63;;;12.39;100.00